sensor_id;sensor_type;location;lat;lon;timestamp;P1;durP1;ratioP1;P2;durP2;ratioP2
65799;SDS011;52544;48.116;11.660;2023-08-31T00:01:43;3.08;;;2.70;;
65799;SDS011;52544;48.116;11.660;2023-08-31T00:04:08;6.25;;;2.88;;
65799;SDS011;52544;48.116;11.660;2023-08-31T00:06:39;3.53;;;2.67;;
65799;SDS011;52544;48.116;11.660;2023-08-31T00:09:09;4.72;;;3.08;;
65799;SDS011;52544;48.116;11.660;2023-08-31T00:11:35;3.95;;;2.60;;
65799;SDS011;52544;48.116;11.660;2023-08-31T00:14:01;3.50;;;2.65;;
65799;SDS011;52544;48.116;11.660;2023-08-31T00:16:26;6.78;;;2.78;;
65799;SDS011;52544;48.116;11.660;2023-08-31T00:18:52;4.13;;;2.83;;
65799;SDS011;52544;48.116;11.660;2023-08-31T00:21:19;2.50;;;2.28;;
65799;SDS011;52544;48.116;11.660;2023-08-31T00:23:46;3.20;;;2.58;;
65799;SDS011;52544;48.116;11.660;2023-08-31T00:26:12;3.13;;;2.45;;
65799;SDS011;52544;48.116;11.660;2023-08-31T00:28:37;3.67;;;2.55;;
65799;SDS011;52544;48.116;11.660;2023-08-31T00:31:03;2.97;;;2.28;;
65799;SDS011;52544;48.116;11.660;2023-08-31T00:33:30;3.30;;;2.80;;
65799;SDS011;52544;48.116;11.660;2023-08-31T00:35:56;5.07;;;2.50;;
65799;SDS011;52544;48.116;11.660;2023-08-31T00:38:28;3.78;;;2.83;;
65799;SDS011;52544;48.116;11.660;2023-08-31T00:40:54;3.22;;;2.70;;
65799;SDS011;52544;48.116;11.660;2023-08-31T00:43:19;2.85;;;2.40;;
65799;SDS011;52544;48.116;11.660;2023-08-31T00:45:45;4.22;;;3.00;;
65799;SDS011;52544;48.116;11.660;2023-08-31T00:48:15;3.17;;;2.42;;
65799;SDS011;52544;48.116;11.660;2023-08-31T00:50:46;3.42;;;2.13;;
65799;SDS011;52544;48.116;11.660;2023-08-31T00:53:13;3.55;;;2.92;;
65799;SDS011;52544;48.116;11.660;2023-08-31T00:55:40;3.50;;;2.53;;
65799;SDS011;52544;48.116;11.660;2023-08-31T00:58:06;2.55;;;2.30;;
65799;SDS011;52544;48.116;11.660;2023-08-31T01:03:27;2.63;;;2.42;;
65799;SDS011;52544;48.116;11.660;2023-08-31T01:09:05;3.47;;;2.85;;
65799;SDS011;52544;48.116;11.660;2023-08-31T01:11:52;4.18;;;2.65;;
65799;SDS011;52544;48.116;11.660;2023-08-31T01:14:32;3.42;;;2.67;;
65799;SDS011;52544;48.116;11.660;2023-08-31T01:17:03;7.10;;;2.70;;
65799;SDS011;52544;48.116;11.660;2023-08-31T01:19:48;4.50;;;3.05;;
65799;SDS011;52544;48.116;11.660;2023-08-31T01:25:06;3.00;;;2.50;;
65799;SDS011;52544;48.116;11.660;2023-08-31T01:27:34;3.70;;;2.92;;
65799;SDS011;52544;48.116;11.660;2023-08-31T01:30:01;2.95;;;2.50;;
65799;SDS011;52544;48.116;11.660;2023-08-31T01:32:28;3.05;;;2.58;;
65799;SDS011;52544;48.116;11.660;2023-08-31T01:34:54;3.20;;;2.65;;
65799;SDS011;52544;48.116;11.660;2023-08-31T01:37:26;3.38;;;2.90;;
65799;SDS011;52544;48.116;11.660;2023-08-31T01:40:02;3.40;;;2.58;;
65799;SDS011;52544;48.116;11.660;2023-08-31T01:42:35;4.40;;;3.00;;
65799;SDS011;52544;48.116;11.660;2023-08-31T01:45:01;3.20;;;2.55;;
65799;SDS011;52544;48.116;11.660;2023-08-31T01:47:29;4.10;;;3.00;;
65799;SDS011;52544;48.116;11.660;2023-08-31T01:49:55;5.18;;;3.10;;
65799;SDS011;52544;48.116;11.660;2023-08-31T01:52:21;3.50;;;2.80;;
65799;SDS011;52544;48.116;11.660;2023-08-31T01:54:46;4.57;;;2.67;;
65799;SDS011;52544;48.116;11.660;2023-08-31T01:57:12;4.15;;;3.00;;
65799;SDS011;52544;48.116;11.660;2023-08-31T01:59:38;6.53;;;3.30;;
65799;SDS011;52544;48.116;11.660;2023-08-31T02:02:03;4.50;;;3.20;;
65799;SDS011;52544;48.116;11.660;2023-08-31T02:04:29;4.03;;;3.10;;
65799;SDS011;52544;48.116;11.660;2023-08-31T02:06:54;5.00;;;2.78;;
65799;SDS011;52544;48.116;11.660;2023-08-31T02:09:20;3.47;;;2.80;;
65799;SDS011;52544;48.116;11.660;2023-08-31T02:11:45;4.40;;;2.63;;
65799;SDS011;52544;48.116;11.660;2023-08-31T02:14:11;3.90;;;3.00;;
65799;SDS011;52544;48.116;11.660;2023-08-31T02:16:36;4.28;;;2.70;;
65799;SDS011;52544;48.116;11.660;2023-08-31T02:19:01;5.32;;;3.00;;
65799;SDS011;52544;48.116;11.660;2023-08-31T02:21:27;3.70;;;2.85;;
65799;SDS011;52544;48.116;11.660;2023-08-31T02:23:52;3.72;;;2.95;;
65799;SDS011;52544;48.116;11.660;2023-08-31T02:26:18;6.05;;;3.13;;
65799;SDS011;52544;48.116;11.660;2023-08-31T02:28:43;4.72;;;3.20;;
65799;SDS011;52544;48.116;11.660;2023-08-31T02:31:09;5.72;;;3.35;;
65799;SDS011;52544;48.116;11.660;2023-08-31T02:33:35;3.92;;;3.10;;
65799;SDS011;52544;48.116;11.660;2023-08-31T02:36:01;5.30;;;3.53;;
65799;SDS011;52544;48.116;11.660;2023-08-31T02:38:26;5.22;;;3.40;;
65799;SDS011;52544;48.116;11.660;2023-08-31T02:40:52;6.55;;;3.33;;
65799;SDS011;52544;48.116;11.660;2023-08-31T02:43:17;3.65;;;3.10;;
65799;SDS011;52544;48.116;11.660;2023-08-31T02:45:42;5.07;;;3.10;;
65799;SDS011;52544;48.116;11.660;2023-08-31T02:48:08;6.38;;;3.60;;
65799;SDS011;52544;48.116;11.660;2023-08-31T02:50:37;6.63;;;3.88;;
65799;SDS011;52544;48.116;11.660;2023-08-31T02:53:03;8.73;;;3.92;;
65799;SDS011;52544;48.116;11.660;2023-08-31T02:55:28;6.68;;;4.13;;
65799;SDS011;52544;48.116;11.660;2023-08-31T02:57:56;6.10;;;4.75;;
65799;SDS011;52544;48.116;11.660;2023-08-31T03:00:22;5.50;;;3.80;;
65799;SDS011;52544;48.116;11.660;2023-08-31T03:02:48;7.00;;;4.13;;
65799;SDS011;52544;48.116;11.660;2023-08-31T03:05:13;7.05;;;4.40;;
65799;SDS011;52544;48.116;11.660;2023-08-31T03:07:39;6.45;;;4.35;;
65799;SDS011;52544;48.116;11.660;2023-08-31T03:10:04;6.43;;;4.00;;
65799;SDS011;52544;48.116;11.660;2023-08-31T03:12:30;7.00;;;4.85;;
65799;SDS011;52544;48.116;11.660;2023-08-31T03:14:56;6.97;;;4.05;;
65799;SDS011;52544;48.116;11.660;2023-08-31T03:17:21;6.45;;;4.68;;
65799;SDS011;52544;48.116;11.660;2023-08-31T03:19:47;6.78;;;4.60;;
65799;SDS011;52544;48.116;11.660;2023-08-31T03:22:12;6.03;;;4.65;;
65799;SDS011;52544;48.116;11.660;2023-08-31T03:24:38;5.88;;;4.28;;
65799;SDS011;52544;48.116;11.660;2023-08-31T03:27:03;6.28;;;3.90;;
65799;SDS011;52544;48.116;11.660;2023-08-31T03:29:29;4.53;;;3.67;;
65799;SDS011;52544;48.116;11.660;2023-08-31T03:31:56;7.55;;;3.95;;
65799;SDS011;52544;48.116;11.660;2023-08-31T03:34:21;7.38;;;4.28;;
65799;SDS011;52544;48.116;11.660;2023-08-31T03:36:46;5.72;;;3.60;;
65799;SDS011;52544;48.116;11.660;2023-08-31T03:39:12;4.95;;;3.40;;
65799;SDS011;52544;48.116;11.660;2023-08-31T03:41:37;5.90;;;3.60;;
65799;SDS011;52544;48.116;11.660;2023-08-31T03:44:03;3.90;;;3.00;;
65799;SDS011;52544;48.116;11.660;2023-08-31T03:46:28;5.57;;;3.10;;
65799;SDS011;52544;48.116;11.660;2023-08-31T03:48:54;3.88;;;2.70;;
65799;SDS011;52544;48.116;11.660;2023-08-31T03:51:19;4.07;;;2.70;;
65799;SDS011;52544;48.116;11.660;2023-08-31T03:53:45;2.78;;;2.30;;
65799;SDS011;52544;48.116;11.660;2023-08-31T03:56:10;3.78;;;2.45;;
65799;SDS011;52544;48.116;11.660;2023-08-31T03:58:36;5.18;;;2.35;;
65799;SDS011;52544;48.116;11.660;2023-08-31T04:01:02;3.75;;;2.58;;
65799;SDS011;52544;48.116;11.660;2023-08-31T04:03:28;2.50;;;2.22;;
65799;SDS011;52544;48.116;11.660;2023-08-31T04:05:54;2.90;;;2.55;;
65799;SDS011;52544;48.116;11.660;2023-08-31T04:08:20;6.15;;;4.05;;
65799;SDS011;52544;48.116;11.660;2023-08-31T04:10:45;5.65;;;3.97;;
65799;SDS011;52544;48.116;11.660;2023-08-31T04:13:11;5.72;;;2.92;;
65799;SDS011;52544;48.116;11.660;2023-08-31T04:15:36;4.28;;;2.90;;
65799;SDS011;52544;48.116;11.660;2023-08-31T04:18:02;7.47;;;3.00;;
65799;SDS011;52544;48.116;11.660;2023-08-31T04:20:27;3.97;;;3.10;;
65799;SDS011;52544;48.116;11.660;2023-08-31T04:22:53;3.17;;;2.78;;
65799;SDS011;52544;48.116;11.660;2023-08-31T04:25:18;3.88;;;2.83;;
65799;SDS011;52544;48.116;11.660;2023-08-31T04:27:44;4.30;;;2.80;;
65799;SDS011;52544;48.116;11.660;2023-08-31T04:30:10;4.05;;;2.90;;
65799;SDS011;52544;48.116;11.660;2023-08-31T04:32:36;3.47;;;2.78;;
65799;SDS011;52544;48.116;11.660;2023-08-31T04:35:05;4.65;;;2.70;;
65799;SDS011;52544;48.116;11.660;2023-08-31T04:37:34;3.40;;;2.42;;
65799;SDS011;52544;48.116;11.660;2023-08-31T04:39:59;4.05;;;2.85;;
65799;SDS011;52544;48.116;11.660;2023-08-31T04:42:25;3.53;;;2.58;;
65799;SDS011;52544;48.116;11.660;2023-08-31T04:44:50;3.60;;;2.63;;
65799;SDS011;52544;48.116;11.660;2023-08-31T04:47:16;4.60;;;2.80;;
65799;SDS011;52544;48.116;11.660;2023-08-31T04:49:42;3.60;;;2.60;;
65799;SDS011;52544;48.116;11.660;2023-08-31T04:52:07;4.05;;;2.90;;
65799;SDS011;52544;48.116;11.660;2023-08-31T04:54:33;3.38;;;2.63;;
65799;SDS011;52544;48.116;11.660;2023-08-31T04:56:58;3.45;;;2.72;;
65799;SDS011;52544;48.116;11.660;2023-08-31T04:59:24;5.35;;;3.10;;
65799;SDS011;52544;48.116;11.660;2023-08-31T05:01:49;4.88;;;3.03;;
65799;SDS011;52544;48.116;11.660;2023-08-31T05:04:15;4.55;;;3.20;;
65799;SDS011;52544;48.116;11.660;2023-08-31T05:06:40;5.70;;;3.00;;
65799;SDS011;52544;48.116;11.660;2023-08-31T05:09:05;4.35;;;3.15;;
65799;SDS011;52544;48.116;11.660;2023-08-31T05:11:31;7.25;;;4.25;;
65799;SDS011;52544;48.116;11.660;2023-08-31T05:13:57;7.32;;;5.53;;
65799;SDS011;52544;48.116;11.660;2023-08-31T05:16:22;8.70;;;5.05;;
65799;SDS011;52544;48.116;11.660;2023-08-31T05:18:48;9.07;;;5.70;;
65799;SDS011;52544;48.116;11.660;2023-08-31T05:21:14;7.22;;;4.50;;
65799;SDS011;52544;48.116;11.660;2023-08-31T05:23:40;4.70;;;3.60;;
65799;SDS011;52544;48.116;11.660;2023-08-31T05:26:05;5.22;;;3.50;;
65799;SDS011;52544;48.116;11.660;2023-08-31T05:28:30;5.28;;;3.80;;
65799;SDS011;52544;48.116;11.660;2023-08-31T05:30:56;5.30;;;3.22;;
65799;SDS011;52544;48.116;11.660;2023-08-31T05:33:23;5.03;;;3.22;;
65799;SDS011;52544;48.116;11.660;2023-08-31T05:35:50;5.25;;;3.42;;
65799;SDS011;52544;48.116;11.660;2023-08-31T05:38:16;6.10;;;3.58;;
65799;SDS011;52544;48.116;11.660;2023-08-31T05:40:41;4.45;;;3.30;;
65799;SDS011;52544;48.116;11.660;2023-08-31T05:43:10;6.05;;;3.63;;
65799;SDS011;52544;48.116;11.660;2023-08-31T05:45:36;6.53;;;4.68;;
65799;SDS011;52544;48.116;11.660;2023-08-31T05:48:02;10.00;;;4.45;;
65799;SDS011;52544;48.116;11.660;2023-08-31T05:50:27;6.90;;;4.55;;
65799;SDS011;52544;48.116;11.660;2023-08-31T05:52:53;7.70;;;4.00;;
65799;SDS011;52544;48.116;11.660;2023-08-31T05:55:19;5.15;;;3.95;;
65799;SDS011;52544;48.116;11.660;2023-08-31T05:57:45;5.85;;;4.30;;
65799;SDS011;52544;48.116;11.660;2023-08-31T06:00:10;5.43;;;3.92;;
65799;SDS011;52544;48.116;11.660;2023-08-31T06:02:36;7.00;;;4.18;;
65799;SDS011;52544;48.116;11.660;2023-08-31T06:05:02;6.13;;;4.00;;
65799;SDS011;52544;48.116;11.660;2023-08-31T06:07:28;5.07;;;3.80;;
65799;SDS011;52544;48.116;11.660;2023-08-31T06:09:54;6.35;;;4.60;;
65799;SDS011;52544;48.116;11.660;2023-08-31T06:12:20;6.50;;;4.55;;
65799;SDS011;52544;48.116;11.660;2023-08-31T06:14:45;10.02;;;6.93;;
65799;SDS011;52544;48.116;11.660;2023-08-31T06:17:11;5.68;;;4.35;;
65799;SDS011;52544;48.116;11.660;2023-08-31T06:19:38;6.35;;;4.20;;
65799;SDS011;52544;48.116;11.660;2023-08-31T06:22:07;5.88;;;4.07;;
65799;SDS011;52544;48.116;11.660;2023-08-31T06:24:32;7.35;;;4.05;;
65799;SDS011;52544;48.116;11.660;2023-08-31T06:26:59;6.47;;;3.83;;
65799;SDS011;52544;48.116;11.660;2023-08-31T06:29:25;5.18;;;3.60;;
65799;SDS011;52544;48.116;11.660;2023-08-31T06:31:50;6.53;;;4.47;;
65799;SDS011;52544;48.116;11.660;2023-08-31T06:34:16;5.43;;;3.80;;
65799;SDS011;52544;48.116;11.660;2023-08-31T06:36:41;8.40;;;5.40;;
65799;SDS011;52544;48.116;11.660;2023-08-31T06:39:07;6.38;;;4.50;;
65799;SDS011;52544;48.116;11.660;2023-08-31T06:41:33;8.05;;;5.47;;
65799;SDS011;52544;48.116;11.660;2023-08-31T06:43:58;6.85;;;4.47;;
65799;SDS011;52544;48.116;11.660;2023-08-31T06:46:24;6.63;;;4.10;;
65799;SDS011;52544;48.116;11.660;2023-08-31T06:48:50;8.77;;;3.65;;
65799;SDS011;52544;48.116;11.660;2023-08-31T06:51:15;6.53;;;4.30;;
65799;SDS011;52544;48.116;11.660;2023-08-31T06:53:44;4.20;;;3.05;;
65799;SDS011;52544;48.116;11.660;2023-08-31T06:56:09;4.15;;;3.45;;
65799;SDS011;52544;48.116;11.660;2023-08-31T06:58:35;7.30;;;3.80;;
65799;SDS011;52544;48.116;11.660;2023-08-31T07:01:00;5.43;;;3.70;;
65799;SDS011;52544;48.116;11.660;2023-08-31T07:03:26;4.47;;;3.10;;
65799;SDS011;52544;48.116;11.660;2023-08-31T07:05:52;4.40;;;3.35;;
65799;SDS011;52544;48.116;11.660;2023-08-31T07:08:17;4.45;;;3.20;;
65799;SDS011;52544;48.116;11.660;2023-08-31T07:10:43;4.43;;;3.20;;
65799;SDS011;52544;48.116;11.660;2023-08-31T07:13:08;6.00;;;3.60;;
65799;SDS011;52544;48.116;11.660;2023-08-31T07:15:33;7.15;;;4.68;;
65799;SDS011;52544;48.116;11.660;2023-08-31T07:17:59;7.35;;;4.93;;
65799;SDS011;52544;48.116;11.660;2023-08-31T07:20:25;5.03;;;3.28;;
65799;SDS011;52544;48.116;11.660;2023-08-31T07:22:50;5.32;;;3.50;;
65799;SDS011;52544;48.116;11.660;2023-08-31T07:25:16;4.07;;;3.10;;
65799;SDS011;52544;48.116;11.660;2023-08-31T07:27:41;4.43;;;3.08;;
65799;SDS011;52544;48.116;11.660;2023-08-31T07:30:07;5.63;;;3.13;;
65799;SDS011;52544;48.116;11.660;2023-08-31T07:32:32;4.00;;;2.85;;
65799;SDS011;52544;48.116;11.660;2023-08-31T07:34:58;5.68;;;2.80;;
65799;SDS011;52544;48.116;11.660;2023-08-31T07:37:23;5.50;;;3.15;;
65799;SDS011;52544;48.116;11.660;2023-08-31T07:39:49;4.35;;;2.95;;
65799;SDS011;52544;48.116;11.660;2023-08-31T07:42:14;4.40;;;2.95;;
65799;SDS011;52544;48.116;11.660;2023-08-31T07:44:40;6.70;;;2.80;;
65799;SDS011;52544;48.116;11.660;2023-08-31T07:47:07;5.45;;;3.35;;
65799;SDS011;52544;48.116;11.660;2023-08-31T07:49:33;4.70;;;3.45;;
65799;SDS011;52544;48.116;11.660;2023-08-31T07:51:58;5.07;;;3.05;;
65799;SDS011;52544;48.116;11.660;2023-08-31T07:54:24;3.95;;;3.03;;
65799;SDS011;52544;48.116;11.660;2023-08-31T07:56:51;7.38;;;3.00;;
65799;SDS011;52544;48.116;11.660;2023-08-31T07:59:17;6.40;;;4.28;;
65799;SDS011;52544;48.116;11.660;2023-08-31T08:01:42;5.05;;;3.22;;
65799;SDS011;52544;48.116;11.660;2023-08-31T08:04:08;4.40;;;3.00;;
65799;SDS011;52544;48.116;11.660;2023-08-31T08:06:33;5.78;;;2.90;;
65799;SDS011;52544;48.116;11.660;2023-08-31T08:08:58;3.88;;;2.85;;
65799;SDS011;52544;48.116;11.660;2023-08-31T08:11:24;6.72;;;3.40;;
65799;SDS011;52544;48.116;11.660;2023-08-31T08:13:49;5.88;;;2.83;;
65799;SDS011;52544;48.116;11.660;2023-08-31T08:16:15;4.38;;;2.85;;
65799;SDS011;52544;48.116;11.660;2023-08-31T08:18:40;3.33;;;2.55;;
65799;SDS011;52544;48.116;11.660;2023-08-31T08:21:06;6.15;;;2.92;;
65799;SDS011;52544;48.116;11.660;2023-08-31T08:23:32;3.85;;;2.40;;
65799;SDS011;52544;48.116;11.660;2023-08-31T08:25:57;3.83;;;2.55;;
65799;SDS011;52544;48.116;11.660;2023-08-31T08:28:24;4.30;;;2.35;;
65799;SDS011;52544;48.116;11.660;2023-08-31T08:30:50;3.95;;;2.45;;
65799;SDS011;52544;48.116;11.660;2023-08-31T08:33:16;3.28;;;2.38;;
65799;SDS011;52544;48.116;11.660;2023-08-31T08:35:41;5.13;;;2.10;;
65799;SDS011;52544;48.116;11.660;2023-08-31T08:38:07;4.93;;;2.30;;
65799;SDS011;52544;48.116;11.660;2023-08-31T08:40:32;3.33;;;2.53;;
65799;SDS011;52544;48.116;11.660;2023-08-31T08:43:00;4.47;;;2.10;;
65799;SDS011;52544;48.116;11.660;2023-08-31T08:45:26;3.05;;;2.17;;
65799;SDS011;52544;48.116;11.660;2023-08-31T08:48:01;4.25;;;2.33;;
65799;SDS011;52544;48.116;11.660;2023-08-31T08:50:29;4.20;;;1.90;;
65799;SDS011;52544;48.116;11.660;2023-08-31T08:52:57;5.35;;;2.50;;
65799;SDS011;52544;48.116;11.660;2023-08-31T08:55:22;3.25;;;2.45;;
65799;SDS011;52544;48.116;11.660;2023-08-31T08:57:48;9.50;;;2.28;;
65799;SDS011;52544;48.116;11.660;2023-08-31T09:00:14;2.88;;;2.03;;
65799;SDS011;52544;48.116;11.660;2023-08-31T09:02:40;4.45;;;2.00;;
65799;SDS011;52544;48.116;11.660;2023-08-31T09:05:06;3.35;;;2.20;;
65799;SDS011;52544;48.116;11.660;2023-08-31T09:07:34;3.30;;;2.17;;
65799;SDS011;52544;48.116;11.660;2023-08-31T09:10:01;5.85;;;2.13;;
65799;SDS011;52544;48.116;11.660;2023-08-31T09:12:28;4.80;;;2.20;;
65799;SDS011;52544;48.116;11.660;2023-08-31T09:15:00;3.13;;;2.20;;
65799;SDS011;52544;48.116;11.660;2023-08-31T09:17:40;2.42;;;1.70;;
65799;SDS011;52544;48.116;11.660;2023-08-31T09:20:07;6.32;;;2.25;;
65799;SDS011;52544;48.116;11.660;2023-08-31T09:22:34;6.40;;;1.85;;
65799;SDS011;52544;48.116;11.660;2023-08-31T09:24:59;3.78;;;1.75;;
65799;SDS011;52544;48.116;11.660;2023-08-31T09:27:25;2.90;;;2.00;;
65799;SDS011;52544;48.116;11.660;2023-08-31T09:29:50;3.42;;;1.77;;
65799;SDS011;52544;48.116;11.660;2023-08-31T09:32:20;6.13;;;1.90;;
65799;SDS011;52544;48.116;11.660;2023-08-31T09:34:45;13.07;;;3.92;;
65799;SDS011;52544;48.116;11.660;2023-08-31T09:37:12;4.03;;;1.88;;
65799;SDS011;52544;48.116;11.660;2023-08-31T09:39:41;3.15;;;1.88;;
65799;SDS011;52544;48.116;11.660;2023-08-31T09:42:06;4.25;;;1.70;;
65799;SDS011;52544;48.116;11.660;2023-08-31T09:44:32;2.58;;;1.80;;
65799;SDS011;52544;48.116;11.660;2023-08-31T09:46:58;5.13;;;2.72;;
65799;SDS011;52544;48.116;11.660;2023-08-31T09:49:24;3.25;;;2.20;;
65799;SDS011;52544;48.116;11.660;2023-08-31T09:51:50;2.15;;;1.80;;
65799;SDS011;52544;48.116;11.660;2023-08-31T09:54:17;3.13;;;2.00;;
65799;SDS011;52544;48.116;11.660;2023-08-31T09:56:45;4.15;;;1.85;;
65799;SDS011;52544;48.116;11.660;2023-08-31T09:59:11;2.35;;;1.70;;
65799;SDS011;52544;48.116;11.660;2023-08-31T10:01:41;2.35;;;1.50;;
65799;SDS011;52544;48.116;11.660;2023-08-31T10:04:08;3.10;;;1.85;;
65799;SDS011;52544;48.116;11.660;2023-08-31T10:06:34;3.13;;;1.83;;
65799;SDS011;52544;48.116;11.660;2023-08-31T10:09:03;2.80;;;1.70;;
65799;SDS011;52544;48.116;11.660;2023-08-31T10:11:29;2.22;;;1.60;;
65799;SDS011;52544;48.116;11.660;2023-08-31T10:13:55;4.82;;;1.80;;
65799;SDS011;52544;48.116;11.660;2023-08-31T10:16:21;3.60;;;1.67;;
65799;SDS011;52544;48.116;11.660;2023-08-31T10:18:47;5.00;;;1.95;;
65799;SDS011;52544;48.116;11.660;2023-08-31T10:21:16;3.28;;;1.90;;
65799;SDS011;52544;48.116;11.660;2023-08-31T10:23:46;2.45;;;1.83;;
65799;SDS011;52544;48.116;11.660;2023-08-31T10:26:22;2.58;;;1.80;;
65799;SDS011;52544;48.116;11.660;2023-08-31T10:28:49;3.55;;;1.92;;
65799;SDS011;52544;48.116;11.660;2023-08-31T10:31:17;3.75;;;1.70;;
65799;SDS011;52544;48.116;11.660;2023-08-31T10:33:44;3.03;;;1.90;;
65799;SDS011;52544;48.116;11.660;2023-08-31T10:36:41;6.13;;;1.90;;
65799;SDS011;52544;48.116;11.660;2023-08-31T10:39:13;4.78;;;1.80;;
65799;SDS011;52544;48.116;11.660;2023-08-31T10:41:56;2.85;;;1.88;;
65799;SDS011;52544;48.116;11.660;2023-08-31T10:44:22;4.75;;;1.98;;
65799;SDS011;52544;48.116;11.660;2023-08-31T10:46:52;5.75;;;2.40;;
65799;SDS011;52544;48.116;11.660;2023-08-31T10:49:19;3.35;;;2.10;;
65799;SDS011;52544;48.116;11.660;2023-08-31T10:54:26;4.75;;;2.28;;
65799;SDS011;52544;48.116;11.660;2023-08-31T10:59:52;3.83;;;1.95;;
65799;SDS011;52544;48.116;11.660;2023-08-31T11:02:28;3.45;;;2.13;;
65799;SDS011;52544;48.116;11.660;2023-08-31T11:04:55;4.25;;;2.55;;
65799;SDS011;52544;48.116;11.660;2023-08-31T11:07:26;4.40;;;2.60;;
65799;SDS011;52544;48.116;11.660;2023-08-31T11:09:52;5.60;;;2.28;;
65799;SDS011;52544;48.116;11.660;2023-08-31T11:12:47;3.13;;;2.05;;
65799;SDS011;52544;48.116;11.660;2023-08-31T11:15:17;2.50;;;2.00;;
65799;SDS011;52544;48.116;11.660;2023-08-31T11:17:44;4.63;;;2.30;;
65799;SDS011;52544;48.116;11.660;2023-08-31T11:20:14;3.85;;;2.38;;
65799;SDS011;52544;48.116;11.660;2023-08-31T11:22:42;2.60;;;1.90;;
65799;SDS011;52544;48.116;11.660;2023-08-31T11:25:08;4.15;;;2.00;;
65799;SDS011;52544;48.116;11.660;2023-08-31T11:27:36;2.33;;;1.98;;
65799;SDS011;52544;48.116;11.660;2023-08-31T11:30:02;5.22;;;2.47;;
65799;SDS011;52544;48.116;11.660;2023-08-31T11:32:29;4.75;;;2.17;;
65799;SDS011;52544;48.116;11.660;2023-08-31T11:34:54;4.00;;;2.33;;
65799;SDS011;52544;48.116;11.660;2023-08-31T11:37:19;3.95;;;2.60;;
65799;SDS011;52544;48.116;11.660;2023-08-31T11:39:52;4.07;;;2.40;;
65799;SDS011;52544;48.116;11.660;2023-08-31T11:42:20;5.47;;;2.78;;
65799;SDS011;52544;48.116;11.660;2023-08-31T11:44:50;5.18;;;3.00;;
65799;SDS011;52544;48.116;11.660;2023-08-31T11:47:17;6.28;;;3.17;;
65799;SDS011;52544;48.116;11.660;2023-08-31T11:49:45;5.68;;;2.78;;
65799;SDS011;52544;48.116;11.660;2023-08-31T11:52:12;4.55;;;2.65;;
65799;SDS011;52544;48.116;11.660;2023-08-31T11:54:38;8.02;;;2.65;;
65799;SDS011;52544;48.116;11.660;2023-08-31T11:57:08;5.78;;;2.58;;
65799;SDS011;52544;48.116;11.660;2023-08-31T11:59:34;4.93;;;2.70;;
65799;SDS011;52544;48.116;11.660;2023-08-31T12:02:01;7.50;;;2.88;;
65799;SDS011;52544;48.116;11.660;2023-08-31T12:04:30;5.20;;;2.55;;
65799;SDS011;52544;48.116;11.660;2023-08-31T12:07:00;4.35;;;2.60;;
65799;SDS011;52544;48.116;11.660;2023-08-31T12:09:29;6.15;;;2.80;;
65799;SDS011;52544;48.116;11.660;2023-08-31T12:11:55;4.07;;;2.60;;
65799;SDS011;52544;48.116;11.660;2023-08-31T12:14:21;4.65;;;2.30;;
65799;SDS011;52544;48.116;11.660;2023-08-31T12:16:48;3.80;;;2.45;;
65799;SDS011;52544;48.116;11.660;2023-08-31T12:19:14;5.07;;;2.53;;
65799;SDS011;52544;48.116;11.660;2023-08-31T12:21:41;3.75;;;2.20;;
65799;SDS011;52544;48.116;11.660;2023-08-31T12:24:07;4.60;;;2.40;;
65799;SDS011;52544;48.116;11.660;2023-08-31T12:26:33;4.10;;;2.50;;
65799;SDS011;52544;48.116;11.660;2023-08-31T12:29:00;3.85;;;2.10;;
65799;SDS011;52544;48.116;11.660;2023-08-31T12:31:28;5.57;;;2.75;;
65799;SDS011;52544;48.116;11.660;2023-08-31T12:33:54;3.47;;;2.28;;
65799;SDS011;52544;48.116;11.660;2023-08-31T12:36:19;6.18;;;3.10;;
65799;SDS011;52544;48.116;11.660;2023-08-31T12:38:44;6.60;;;3.58;;
65799;SDS011;52544;48.116;11.660;2023-08-31T12:41:10;3.85;;;2.30;;
65799;SDS011;52544;48.116;11.660;2023-08-31T12:43:35;4.88;;;2.35;;
65799;SDS011;52544;48.116;11.660;2023-08-31T12:46:01;5.60;;;1.83;;
65799;SDS011;52544;48.116;11.660;2023-08-31T12:48:27;2.92;;;1.80;;
65799;SDS011;52544;48.116;11.660;2023-08-31T12:50:52;3.72;;;1.73;;
65799;SDS011;52544;48.116;11.660;2023-08-31T12:53:20;2.92;;;1.80;;
65799;SDS011;52544;48.116;11.660;2023-08-31T12:55:47;5.22;;;1.90;;
65799;SDS011;52544;48.116;11.660;2023-08-31T12:58:13;4.47;;;2.10;;
65799;SDS011;52544;48.116;11.660;2023-08-31T13:00:38;2.65;;;1.90;;
65799;SDS011;52544;48.116;11.660;2023-08-31T13:03:04;5.18;;;3.17;;
65799;SDS011;52544;48.116;11.660;2023-08-31T13:05:32;5.65;;;2.00;;
65799;SDS011;52544;48.116;11.660;2023-08-31T13:07:57;4.93;;;2.80;;
65799;SDS011;52544;48.116;11.660;2023-08-31T13:10:23;7.65;;;3.17;;
65799;SDS011;52544;48.116;11.660;2023-08-31T13:12:49;4.32;;;2.28;;
65799;SDS011;52544;48.116;11.660;2023-08-31T13:15:14;3.30;;;2.00;;
65799;SDS011;52544;48.116;11.660;2023-08-31T13:17:39;5.80;;;1.90;;
65799;SDS011;52544;48.116;11.660;2023-08-31T13:20:05;4.40;;;2.25;;
65799;SDS011;52544;48.116;11.660;2023-08-31T13:22:31;4.00;;;1.92;;
65799;SDS011;52544;48.116;11.660;2023-08-31T13:24:57;4.65;;;2.15;;
65799;SDS011;52544;48.116;11.660;2023-08-31T13:27:22;2.50;;;1.90;;
65799;SDS011;52544;48.116;11.660;2023-08-31T13:29:47;5.72;;;2.30;;
65799;SDS011;52544;48.116;11.660;2023-08-31T13:32:13;4.20;;;1.90;;
65799;SDS011;52544;48.116;11.660;2023-08-31T13:34:38;4.85;;;2.00;;
65799;SDS011;52544;48.116;11.660;2023-08-31T13:37:04;6.07;;;2.20;;
65799;SDS011;52544;48.116;11.660;2023-08-31T13:39:30;4.68;;;2.40;;
65799;SDS011;52544;48.116;11.660;2023-08-31T13:41:56;3.08;;;1.92;;
65799;SDS011;52544;48.116;11.660;2023-08-31T13:44:22;4.22;;;2.25;;
65799;SDS011;52544;48.116;11.660;2023-08-31T13:46:47;4.93;;;2.28;;
65799;SDS011;52544;48.116;11.660;2023-08-31T13:49:14;7.68;;;2.60;;
65799;SDS011;52544;48.116;11.660;2023-08-31T13:51:40;5.80;;;2.63;;
65799;SDS011;52544;48.116;11.660;2023-08-31T13:54:05;6.18;;;2.00;;
65799;SDS011;52544;48.116;11.660;2023-08-31T13:57:12;6.25;;;2.30;;
65799;SDS011;52544;48.116;11.660;2023-08-31T14:00:02;3.13;;;1.98;;
65799;SDS011;52544;48.116;11.660;2023-08-31T14:02:30;2.97;;;2.13;;
65799;SDS011;52544;48.116;11.660;2023-08-31T14:04:55;3.78;;;1.92;;
65799;SDS011;52544;48.116;11.660;2023-08-31T14:07:21;3.70;;;1.90;;
65799;SDS011;52544;48.116;11.660;2023-08-31T14:09:47;5.82;;;2.22;;
65799;SDS011;52544;48.116;11.660;2023-08-31T14:12:12;4.35;;;1.90;;
65799;SDS011;52544;48.116;11.660;2023-08-31T14:14:37;4.07;;;2.08;;
65799;SDS011;52544;48.116;11.660;2023-08-31T14:17:04;4.72;;;2.08;;
65799;SDS011;52544;48.116;11.660;2023-08-31T14:19:29;3.35;;;2.00;;
65799;SDS011;52544;48.116;11.660;2023-08-31T14:21:55;6.78;;;2.20;;
65799;SDS011;52544;48.116;11.660;2023-08-31T14:24:21;2.72;;;2.10;;
65799;SDS011;52544;48.116;11.660;2023-08-31T14:26:47;4.57;;;2.10;;
65799;SDS011;52544;48.116;11.660;2023-08-31T14:29:12;6.82;;;1.80;;
65799;SDS011;52544;48.116;11.660;2023-08-31T14:31:38;4.57;;;2.28;;
65799;SDS011;52544;48.116;11.660;2023-08-31T14:34:03;3.35;;;2.03;;
65799;SDS011;52544;48.116;11.660;2023-08-31T14:36:29;3.53;;;2.03;;
65799;SDS011;52544;48.116;11.660;2023-08-31T14:38:54;6.63;;;1.90;;
65799;SDS011;52544;48.116;11.660;2023-08-31T14:41:19;4.85;;;2.00;;
65799;SDS011;52544;48.116;11.660;2023-08-31T14:43:45;4.55;;;2.03;;
65799;SDS011;52544;48.116;11.660;2023-08-31T14:46:10;3.15;;;1.90;;